map of STJ home
STJ - Airport
Location
City:  St. Joseph, Missouri, United States
Name:Rosecrans Memorial Airport
ICAO:KSTJ
IATA:STJ
FAA LID:STJ

Details
Type:Airport (Part 139 Class IV)
Use:Public/Civil
Latitude:3946'19"N (39.771944)
Longitude:9454'35"W (-94.909705)
Datum:WGS 1984
Elevation:826 ft (252 m)
Variation:1.83E (WMM2015 magnetic declination)
-0.09 annual change
Runways:2
Longest:8061 × 150 ft (2457 × 45.5 m), paved

Time
Time Zone:UTC-6 (DST-5)
Local Time:

Weather
METAR:KSTJ 261253Z 22005KT 10SM CLR 24/20 A2981 RMK AO2 SLP085 T02390200
TAF:KSTJ 261120Z 2612/2712 23005KT P6SM FEW250

Related Locations
Nearby:
Farthest:YAUG: 10747 mi / 17296 km
Augusta [Augusta Airport], WA, AU

Find:

   beyond  
but within

Other Information
Maps:
NOTAMs:
Links:
Sources:

  
flag of United States
flag of Missouri
  

Airport Diagram

Airport diagram for STJ

Airport diagram PDF

Sectional Chart

Flight Planning
at skyvector.com

Satellite Image

Google Maps Satellite view

 

Copyright © 2004-2018 Karl L. Swartz. All rights reserved.
The Great Circle Mapper name and logo are trademarks of the Great Circle Mapper.
All other trademarks mentioned herein belong to their respective owners.
Please see credits for attibutions and further copyright information.

  Follow gcmap on Facebook Follow gcmap on Twitter Follow gcmap on Google+ GCmap on LinkedIn

hCard Microformat

Geo Microformat